DW3648 Granada ES current weather conditions

sailwx.info

Wind from 290

Air temperature 11.1° C
Dewpoint 3.6° C

Last reported at 2019-Mar-20 09:02 UTC.
Time now 2019-Mar-20 09:59 UTC

Location: N 37°10' W 003°35'.
View on Google Maps.

See reports from other nearby stations

  
Tides and Currents Weather Stations Pressure Air Temp Water Temp Dewpoint Dewpoint Depression Visibility Wind Speed Wind Dir Waves Ship Positions
date/time (UTC)wind fromknots sea level pressurealtimeterstation pressurevisibilityair tempwater tempwave heightnotes
2019-Mar-20 09:02 290 11.1
2019-Mar-20 08:46 266 10.0
2019-Mar-20 08:31 228 9.4
2019-Mar-20 08:16 104 8.3
2019-Mar-20 08:01 109 7.8
2019-Mar-20 07:47 164 0 gusting 6 6.7
2019-Mar-20 07:31 089 1 gusting 5 5.6
2019-Mar-20 07:15 113 0 gusting 4 5.0
2019-Mar-20 07:00 115 0 gusting 4 4.4
2019-Mar-20 06:46 115 3.9
2019-Mar-20 06:30 119 1 gusting 4 3.9
2019-Mar-20 06:15 113 3.9
2019-Mar-20 06:00 090 2 gusting 5 4.4
2019-Mar-20 05:45 095 3 gusting 6 4.4
2019-Mar-20 05:30 108 2 gusting 6 4.4
2019-Mar-20 05:15 111 2 gusting 5 4.4
2019-Mar-20 05:00 128 5.0
2019-Mar-20 04:45 128 0 gusting 3 5.0
2019-Mar-20 04:30 128 5.0
2019-Mar-20 04:16 128 0 gusting 3 5.0
2019-Mar-20 04:00 121 5.6
2019-Mar-20 03:45 113 2 gusting 4 5.6
2019-Mar-20 03:30 102 5.6
2019-Mar-20 03:17 102 0 gusting 3 5.6
2019-Mar-20 03:15 102 0 gusting 3 5.6
2019-Mar-20 03:01 102 0 gusting 6 5.6
2019-Mar-20 02:46 121 2 gusting 4 6.1
2019-Mar-20 02:31 088 4 gusting 6 6.1
2019-Mar-20 02:16 093 3 gusting 6 6.1
2019-Mar-20 02:01 114 6.1
2019-Mar-20 01:46 090 0 gusting 6 6.1
2019-Mar-20 01:31 101 6.7
2019-Mar-20 01:16 121 1 gusting 5 6.7
2019-Mar-20 01:01 111 0 gusting 4 6.7
2019-Mar-20 00:45 118 4 gusting 6 6.7
2019-Mar-20 00:31 093 2 gusting 5 7.2
2019-Mar-20 00:16 116 7.2
2019-Mar-20 00:00 113 7.8
2019-Mar-19 23:45 109 7.8
2019-Mar-19 23:30 102 0 gusting 4 8.3
2019-Mar-19 23:15 098 2 gusting 4 8.3
2019-Mar-19 23:00 112 8.9
2019-Mar-19 22:45 112 8.9
2019-Mar-19 22:30 112 9.4
2019-Mar-19 22:15 112 9.4
2019-Mar-19 22:00 112 0 gusting 2 9.4
2019-Mar-19 21:45 117 0 gusting 4 9.4
2019-Mar-19 21:30 109 0 gusting 4 10.0
2019-Mar-19 21:15 093 3 gusting 6 10.0
2019-Mar-19 21:01 109 11.1
2019-Mar-19 20:45 109 0 gusting 4 11.7
2019-Mar-19 20:30 026 11.7
2019-Mar-19 20:15 026 12.2
2019-Mar-19 20:00 026 12.2
2019-Mar-19 19:45 035 0 gusting 5 12.8
2019-Mar-19 19:30 098 0 gusting 5 12.8
2019-Mar-19 19:15 074 0 gusting 4 12.8
2019-Mar-19 19:00 101 0 gusting 5 13.3
2019-Mar-19 18:45 302 0 gusting 6 13.9
2019-Mar-19 18:30 035 1 gusting 6 13.9
2019-Mar-19 18:15 022 2 gusting 6 15.0
2019-Mar-19 18:00 316 1 gusting 6 15.6
2019-Mar-19 17:45 331 0 gusting 6 15.6
2019-Mar-19 17:30 047 4 gusting 10 15.6
2019-Mar-19 17:15 326 4 gusting 11 16.1
2019-Mar-19 17:00 329 4 gusting 8 16.7
2019-Mar-19 16:45 324 0 gusting 8 17.2
2019-Mar-19 16:30 023 3 gusting 11 16.7
2019-Mar-19 16:15 073 2 gusting 11 16.7
2019-Mar-19 16:00 311 5 gusting 13 16.7
2019-Mar-19 15:45 299 4 gusting 11 17.2
2019-Mar-19 15:30 299 5 gusting 12 17.2
2019-Mar-19 15:15 355 7 gusting 13 16.7
2019-Mar-19 15:00 303 6 gusting 13 17.2
2019-Mar-19 14:45 315 6 gusting 17 17.8
2019-Mar-19 14:33 306 2 gusting 11 17.8
2019-Mar-19 14:17 291 1 gusting 12 17.2
2019-Mar-19 14:01 321 5 gusting 11 17.8
2019-Mar-19 13:46 311 6 gusting 16 16.7
2019-Mar-19 13:32 269 5 gusting 13 17.8
2019-Mar-19 13:16 251 5 gusting 13 17.2
2019-Mar-19 13:01 286 4 gusting 11 16.7
2019-Mar-19 12:46 323 6 gusting 12 16.7
2019-Mar-19 12:31 275 4 gusting 11 16.1
2019-Mar-19 12:17 256 5 gusting 12 15.6
2019-Mar-19 12:01 355 6 gusting 11 15.6
2019-Mar-19 11:46 315 6 gusting 13 16.1
2019-Mar-19 11:31 279 4 gusting 15 15.6
2019-Mar-19 11:16 070 2 gusting 15 15.6
2019-Mar-19 11:01 005 4 gusting 12 16.1
2019-Mar-19 10:46 247 16.7
2019-Mar-19 10:31 248 1 gusting 5 15.0
2019-Mar-19 10:15 216 1 gusting 6 14.4
2019-Mar-19 10:01 239 0 gusting 3 13.9
2019-Mar-19 09:45 201 1 gusting 4 12.8
2019-Mar-19 09:30 266 11.7
2019-Mar-19 09:15 211 11.7
2019-Mar-19 09:00 243 11.1
2019-Mar-19 08:46 243 10.6
2019-Mar-19 08:30 244 0 gusting 4 9.4
2019-Mar-19 08:15 244 0 gusting 5 10.0
2019-Mar-19 08:01 259 1 gusting 6 10.6
2019-Mar-19 07:45 301 0 gusting 4 10.0
2019-Mar-19 07:30 301 9.4
2019-Mar-19 07:15 232 8.9
2019-Mar-19 07:00 123 8.3
2019-Mar-19 06:45 123 0 gusting 5 8.3
2019-Mar-19 06:30 119 1 gusting 5 8.9
2019-Mar-19 06:15 111 2 gusting 5 8.9
2019-Mar-19 06:00 100 9.4
2019-Mar-19 05:45 099 9.4
2019-Mar-19 05:30 099 9.4
2019-Mar-19 05:15 099 0 gusting 3 9.4
2019-Mar-19 05:00 100 9.4
2019-Mar-19 04:45 099 9.4
2019-Mar-19 04:30 099 9.4
2019-Mar-19 04:15 099 9.4
2019-Mar-19 04:01 099 1 gusting 4 9.4
2019-Mar-19 03:47 308 9.4
2019-Mar-19 03:32 308 9.4
2019-Mar-19 03:16 308 9.4
2019-Mar-19 03:02 308 9.4
2019-Mar-19 02:47 308 9.4
2019-Mar-19 02:31 308 10.0
2019-Mar-19 02:16 308 10.0
2019-Mar-19 02:01 308 10.6
2019-Mar-19 01:46 308 10.6
2019-Mar-19 01:31 308 11.1
2019-Mar-19 01:16 308 11.1
2019-Mar-19 01:02 308 11.1
2019-Mar-19 00:46 308 11.1
2019-Mar-19 00:32 308 11.1
2019-Mar-19 00:16 308 11.1
2019-Mar-19 00:01 304 1 gusting 4 11.1
2019-Mar-18 23:46 330 2 gusting 6 11.1
2019-Mar-18 23:30 294 1 gusting 6 11.7
2019-Mar-18 23:16 296 11.7
2019-Mar-18 23:01 296 11.7
2019-Mar-18 22:45 296 0 gusting 4 11.7
2019-Mar-18 22:30 327 11.7
2019-Mar-18 22:15 327 0 gusting 3 11.7
2019-Mar-18 22:00 327 12.2
2019-Mar-18 21:46 327 12.2
2019-Mar-18 21:30 226 12.2
2019-Mar-18 21:15 226 0 gusting 3 12.8
2019-Mar-18 21:01 225 12.8
2019-Mar-18 20:45 226 12.8
2019-Mar-18 20:30 226 2 gusting 5 12.8
2019-Mar-18 20:15 226 13.3
2019-Mar-18 20:00 226 2 gusting 5 13.3
2019-Mar-18 19:45 226 13.3
2019-Mar-18 19:30 226 13.9
2019-Mar-18 19:15 226 13.9
2019-Mar-18 19:00 225 13.9
2019-Mar-18 18:45 225 0 gusting 5 14.4
2019-Mar-18 18:30 225 0 gusting 4 14.4
2019-Mar-18 18:15 230 1 gusting 4 14.4
2019-Mar-18 18:00 240 15.0
2019-Mar-18 17:45 185 1 gusting 6 15.0
2019-Mar-18 17:30 151 3 gusting 6 15.0
2019-Mar-18 17:15 202 0 gusting 7 15.6
2019-Mar-18 17:00 216 2 gusting 9 15.6
2019-Mar-18 16:45 217 3 gusting 8 16.7
2019-Mar-18 16:30 227 3 gusting 11 16.7
2019-Mar-18 16:15 200 3 gusting 13 16.7
2019-Mar-18 16:00 198 17.2
2019-Mar-18 15:45 221 3 gusting 9 17.2
2019-Mar-18 15:30 277 2 gusting 8 17.8
2019-Mar-18 15:15 174 1 gusting 11 18.9
2019-Mar-18 15:00 252 1 gusting 6 18.9
2019-Mar-18 14:45 271 1 gusting 6 19.4
2019-Mar-18 14:30 254 19.4
2019-Mar-18 14:15 315 4 gusting 8 18.9
2019-Mar-18 14:00 332 1 gusting 9 18.9
2019-Mar-18 13:45 146 1 gusting 7 19.4
2019-Mar-18 13:30 313 2 gusting 8 18.9
2019-Mar-18 13:15 194 3 gusting 9 19.4
2019-Mar-18 13:03 244 19.4
2019-Mar-18 12:47 345 18.9
2019-Mar-18 12:32 277 2 gusting 7 18.9
2019-Mar-18 12:16 272 1 gusting 6 18.3
2019-Mar-18 12:01 277 2 gusting 8 18.3
2019-Mar-18 11:46 274 18.3
2019-Mar-18 11:31 250 17.2
2019-Mar-18 11:16 266 2 gusting 6 17.2
2019-Mar-18 11:01 317 1 gusting 6 17.2
2019-Mar-18 10:46 289 0 gusting 5 16.7
2019-Mar-18 10:16 223 0 gusting 5 15.6
2019-Mar-18 10:01 290 0 gusting 4 14.4
2019-Mar-18 09:46 242 0 gusting 3 14.4
2019-Mar-18 09:31 242 13.3
2019-Mar-18 09:16 242 0 gusting 4 13.3
2019-Mar-18 09:00 242 12.8